RJOA

Hiroshima Airport

Hiroshima, Japan
TAF RJOA 161708Z 1618/1800 31004KT 9999 FEW020
Issued Valid From Valid To
Jul-16 @ 17:08 UTC
(3 hours ago)
Jul-16 @ 18:00 UTC
(2 hours ago)
Jul-18 @ 00:00 UTC
(-1 days ago)
Jul-16 @ 18:00 to Jul-18 @ 00:00
TAF RJOA 161708Z 1618/1800 31004KT 9999 FEW020
Wind Visibility Clouds
310° at 4 knots 10,000+ meters
  • Few at 2,000' AGL
TAF RJOA 161708Z 1618/1800 31004KT 9999 FEW020
Issued Jul-16 @ 17:08 UTC
(3 hours ago)
Valid From Jul-16 @ 18:00 UTC
(2 hours ago)
Valid To Jul-18 @ 00:00 UTC
(-1 days ago)
Jul-16 @ 18:00 - Jul-18 @ 00:00
Wind Visibility
310° at 4 knots 10,000+ meters
Clouds
  • Few at 2,000' AGL